Time;durP1;ratioP1;P1;durP2;ratioP2;P2;SDS_P1;SDS_P2;PMS_P1;PMS_P2;Temp;Humidity;BMP_temperature;BMP_pressure;BME280_temperature;BME280_humidity;BME280_pressure;Samples;Min_cycle;Max_cycle;Signal;HPM_P1;HPM_P2
2022/03/27 00:00:13;;;;;;;10.30;5.93;;;;;;;10.50;98.36;103092.69;5277399;28;20028;-72
2022/03/27 00:02:44;;;;;;;8.55;5.43;;;;;;;10.39;99.47;103093.22;5277579;28;20032;-72
2022/03/27 00:05:15;;;;;;;7.53;5.65;;;;;;;10.42;99.70;103091.28;5276701;28;20093;-72
2022/03/27 00:07:47;;;;;;;8.30;5.00;;;;;;;10.40;99.64;103095.75;5277139;28;20486;-72
2022/03/27 00:10:18;;;;;;;9.63;5.50;;;;;;;10.41;100.00;103092.19;5277593;28;20509;-71
2022/03/27 00:12:50;;;;;;;8.02;4.75;;;;;;;10.31;100.00;103104.06;5276054;28;20067;-72
2022/03/27 00:15:22;;;;;;;7.20;4.93;;;;;;;10.35;100.00;103094.28;5276087;28;20509;-72
2022/03/27 00:17:53;;;;;;;9.50;5.20;;;;;;;10.17;100.00;103096.81;5277658;28;20021;-72
2022/03/27 00:20:24;;;;;;;6.18;5.10;;;;;;;10.20;100.00;103094.06;5278244;28;20536;-72
2022/03/27 00:22:56;;;;;;;8.23;5.18;;;;;;;10.15;100.00;103103.03;5275504;28;20028;-72
2022/03/27 00:25:27;;;;;;;8.10;5.13;;;;;;;10.17;100.00;103099.44;5276852;28;20098;-72
2022/03/27 00:27:58;;;;;;;11.98;5.35;;;;;;;10.20;100.00;103106.31;5277498;28;20115;-72
2022/03/27 00:30:30;;;;;;;6.88;4.82;;;;;;;10.18;100.00;103092.41;5277043;28;20020;-71
2022/03/27 00:33:02;;;;;;;6.40;4.70;;;;;;;10.08;100.00;103094.63;5276304;28;20067;-72
2022/03/27 00:35:33;;;;;;;9.43;5.43;;;;;;;10.05;100.00;103093.94;5275886;28;20115;-71
2022/03/27 00:38:04;;;;;;;9.07;4.82;;;;;;;10.06;100.00;103082.53;5276796;28;20028;-72
2022/03/27 00:40:36;;;;;;;5.88;4.97;;;;;;;10.00;100.00;103091.53;5276723;28;20489;-72
2022/03/27 00:43:07;;;;;;;7.50;4.97;;;;;;;10.00;100.00;103088.91;5274597;28;20031;-71
2022/03/27 00:45:38;;;;;;;8.63;4.68;;;;;;;9.96;100.00;103085.56;5276308;28;20060;-72
2022/03/27 00:48:10;;;;;;;6.55;4.80;;;;;;;10.01;100.00;103087.97;5277658;28;20454;-72
2022/03/27 00:50:42;;;;;;;6.40;4.80;;;;;;;9.93;100.00;103088.34;5276769;28;20529;-72
2022/03/27 00:53:13;;;;;;;7.03;4.85;;;;;;;9.93;100.00;103090.09;5277132;28;20036;-72
2022/03/27 00:55:45;;;;;;;9.15;4.75;;;;;;;9.87;100.00;103087.75;5275751;28;20025;-70
2022/03/27 00:58:17;;;;;;;7.50;5.57;;;;;;;9.86;100.00;103092.16;5277586;28;20638;-70
2022/03/27 01:01:11;;;;;;;6.45;4.40;;;;;;;10.04;100.00;103085.22;5277055;28;20374;-70
2022/03/27 01:03:43;;;;;;;;;;;;;;;10.36;100.00;103080.25;5276158;28;20461;-70
2022/03/27 01:06:27;;;;;;;7.57;5.10;;;;;;;9.90;100.00;103083.22;5275704;28;19920;-70
2022/03/27 01:11:51;;;;;;;7.85;5.07;;;;;;;9.60;100.00;103077.63;5277026;28;20040;-69
2022/03/27 01:14:31;;;;;;;8.40;5.18;;;;;;;9.62;100.00;103073.19;5274932;28;20053;-69
2022/03/27 01:17:08;;;;;;;7.47;5.05;;;;;;;9.55;100.00;103076.16;5276622;28;20300;-70
2022/03/27 01:19:47;;;;;;;8.70;5.30;;;;;;;9.56;100.00;103076.06;5274732;28;20653;-70
2022/03/27 01:22:19;;;;;;;7.65;5.88;;;;;;;9.50;100.00;103071.09;5274993;28;20060;-70
2022/03/27 01:24:52;;;;;;;8.27;5.18;;;;;;;9.47;100.00;103074.72;5273241;28;20055;-69
2022/03/27 01:27:23;;;;;;;9.07;5.15;;;;;;;9.47;100.00;103072.09;5276678;28;20083;-69
2022/03/27 01:29:56;;;;;;;7.93;5.57;;;;;;;9.35;100.00;103077.00;5275782;28;20025;-69
2022/03/27 01:32:27;;;;;;;11.73;6.55;;;;;;;9.45;100.00;103073.91;5275066;28;20032;-69
2022/03/27 01:34:58;;;;;;;6.72;4.88;;;;;;;9.27;100.00;103075.56;5274087;28;20363;-69
2022/03/27 01:37:29;;;;;;;6.75;5.68;;;;;;;9.38;100.00;103080.34;5272725;28;20032;-69
2022/03/27 01:40:01;;;;;;;9.30;4.97;;;;;;;9.17;100.00;103076.91;5276471;28;20017;-69
2022/03/27 01:42:32;;;;;;;11.02;4.85;;;;;;;9.15;100.00;103076.09;5275416;28;20090;-70
2022/03/27 01:45:05;;;;;;;9.82;5.75;;;;;;;9.04;100.00;103070.50;5274728;28;20385;-70
2022/03/27 01:47:37;;;;;;;6.17;5.30;;;;;;;9.06;100.00;103075.69;5275561;28;20036;-70
2022/03/27 01:50:09;;;;;;;8.80;5.67;;;;;;;9.06;100.00;103078.28;5274821;28;20035;-70
2022/03/27 01:52:40;;;;;;;9.30;5.82;;;;;;;8.96;100.00;103076.03;5275679;28;20275;-70
2022/03/27 01:55:16;;;;;;;8.60;6.03;;;;;;;8.95;100.00;103082.19;5274509;28;20028;-70
2022/03/27 01:57:48;;;;;;;5.75;4.60;;;;;;;8.81;100.00;103081.91;5276496;28;20028;-70
2022/03/27 02:00:19;;;;;;;7.85;5.80;;;;;;;8.81;100.00;103081.91;5274044;28;20085;-70
2022/03/27 02:02:52;;;;;;;8.98;5.72;;;;;;;8.76;100.00;103079.50;5273597;28;20036;-70
2022/03/27 02:05:24;;;;;;;9.57;5.88;;;;;;;8.58;100.00;103061.97;5274708;28;20024;-70
2022/03/27 02:07:55;;;;;;;7.68;5.63;;;;;;;8.72;100.00;103075.31;5275496;28;20031;-70
2022/03/27 02:10:26;;;;;;;7.70;5.72;;;;;;;8.84;100.00;103075.72;5275747;28;20474;-70
2022/03/27 02:12:57;;;;;;;10.95;5.78;;;;;;;8.80;100.00;103074.16;5273959;28;20028;-70
2022/03/27 02:15:29;;;;;;;10.30;6.03;;;;;;;8.67;100.00;103081.63;5275354;28;20036;-69
2022/03/27 02:18:02;;;;;;;8.57;6.75;;;;;;;8.61;100.00;103079.28;5275033;28;20013;-70
2022/03/27 02:20:34;;;;;;;8.77;6.65;;;;;;;8.66;100.00;103078.16;5275191;28;20032;-69
2022/03/27 02:23:08;;;;;;;11.85;6.90;;;;;;;8.56;100.00;103082.09;5275058;28;20016;-69
2022/03/27 02:25:40;;;;;;;8.88;6.68;;;;;;;8.47;100.00;103072.00;5275109;28;20116;-70
2022/03/27 02:28:11;;;;;;;10.00;7.00;;;;;;;8.44;100.00;103072.97;5275085;28;20115;-69
2022/03/27 02:30:43;;;;;;;9.07;6.65;;;;;;;8.47;100.00;103065.00;5274781;28;20031;-69
2022/03/27 02:33:16;;;;;;;9.23;7.20;;;;;;;8.39;100.00;103067.06;5275054;28;20082;-69
2022/03/27 02:35:47;;;;;;;7.73;6.93;;;;;;;8.39;100.00;103067.06;5274581;28;20025;-69
2022/03/27 02:38:19;;;;;;;10.68;8.43;;;;;;;8.41;100.00;103070.50;5274223;28;20029;-69
2022/03/27 02:40:51;;;;;;;11.20;7.95;;;;;;;8.52;100.00;103078.75;5274670;28;20099;-69
2022/03/27 02:43:22;;;;;;;10.07;8.13;;;;;;;8.55;100.00;103076.91;5274995;28;20166;-69
2022/03/27 02:45:54;;;;;;;12.27;8.93;;;;;;;8.60;100.00;103069.72;5274046;28;20924;-69
2022/03/27 02:48:26;;;;;;;14.47;10.40;;;;;;;8.59;100.00;103066.25;5274533;28;20115;-69
2022/03/27 02:50:58;;;;;;;14.88;11.48;;;;;;;8.66;100.00;103075.56;5274568;28;20852;-69
2022/03/27 02:53:29;;;;;;;14.32;11.65;;;;;;;8.69;100.00;103066.75;5274955;28;20056;-69
2022/03/27 02:56:03;;;;;;;15.38;12.25;;;;;;;8.72;100.00;103067.47;5272577;28;20543;-69
2022/03/27 02:58:35;;;;;;;20.85;13.07;;;;;;;8.72;100.00;103070.09;5274917;28;20050;-69
2022/03/27 03:01:07;;;;;;;18.17;13.02;;;;;;;8.81;100.00;103063.63;5274670;28;20017;-69
2022/03/27 03:03:39;;;;;;;18.48;14.18;;;;;;;8.71;100.00;103051.84;5275060;28;20031;-69
2022/03/27 03:06:10;;;;;;;15.60;13.88;;;;;;;8.74;100.00;103056.94;5274532;28;20025;-69
2022/03/27 03:08:42;;;;;;;18.08;14.35;;;;;;;8.84;100.00;103058.28;5274405;28;20489;-69
2022/03/27 03:11:15;;;;;;;18.27;14.02;;;;;;;8.85;100.00;103069.56;5272107;28;20142;-69
2022/03/27 03:13:51;;;;;;;20.67;14.90;;;;;;;8.90;100.00;103062.38;5274144;28;20052;-70
2022/03/27 03:16:25;;;;;;;18.02;14.90;;;;;;;8.84;100.00;103058.28;5274995;28;20120;-69
2022/03/27 03:18:57;;;;;;;19.63;15.13;;;;;;;8.80;100.00;103066.31;5274327;28;20024;-69
2022/03/27 03:21:28;;;;;;;17.42;14.00;;;;;;;8.84;100.00;103055.66;5271163;28;20060;-70
2022/03/27 03:23:59;;;;;;;15.75;14.05;;;;;;;8.78;100.00;103059.38;5274214;28;20024;-69
2022/03/27 03:26:31;;;;;;;16.48;14.70;;;;;;;8.86;100.00;103061.66;5274984;28;20027;-69
2022/03/27 03:29:02;;;;;;;16.05;13.32;;;;;;;8.86;100.00;103060.81;5274903;28;20912;-69
2022/03/27 03:31:33;;;;;;;15.85;13.57;;;;;;;8.88;100.00;103053.75;5274229;28;20330;-69
2022/03/27 03:34:05;;;;;;;15.98;14.23;;;;;;;8.89;100.00;103051.06;5273337;28;20017;-69
2022/03/27 03:36:36;;;;;;;17.17;14.85;;;;;;;8.91;100.00;103054.50;5274653;28;20520;-69
2022/03/27 03:39:08;;;;;;;16.67;14.75;;;;;;;8.93;100.00;103050.03;5274248;28;20086;-69
2022/03/27 03:41:39;;;;;;;17.15;14.77;;;;;;;8.86;100.00;103045.13;5274800;28;20031;-69
2022/03/27 03:44:10;;;;;;;17.25;14.57;;;;;;;8.93;100.00;103047.41;5273122;28;20385;-69
2022/03/27 03:46:41;;;;;;;16.30;13.30;;;;;;;8.95;100.00;103042.13;5273840;28;20115;-69
2022/03/27 03:49:13;;;;;;;16.30;14.55;;;;;;;8.96;100.00;103035.97;5277012;28;20040;-70
2022/03/27 03:51:44;;;;;;;17.02;14.85;;;;;;;8.96;100.00;103046.44;5278308;28;20047;-69
2022/03/27 03:54:15;;;;;;;16.10;14.15;;;;;;;8.98;100.00;103042.00;5276491;28;20035;-69
2022/03/27 03:56:47;;;;;;;16.48;14.75;;;;;;;8.99;100.00;103046.31;5277717;28;20032;-69
2022/03/27 03:59:19;;;;;;;17.00;14.95;;;;;;;8.99;100.00;103047.16;5276078;28;20478;-70
2022/03/27 04:01:50;;;;;;;17.97;15.17;;;;;;;9.00;100.00;103053.25;5275153;28;20394;-69
2022/03/27 04:04:21;;;;;;;18.90;15.85;;;;;;;8.94;100.00;103051.75;5274810;28;20028;-69
2022/03/27 04:06:53;;;;;;;17.02;14.55;;;;;;;8.95;100.00;103055.22;5276732;28;20025;-69
2022/03/27 04:09:25;;;;;;;16.92;15.13;;;;;;;8.99;100.00;103060.22;5277964;28;20032;-70
2022/03/27 04:11:57;;;;;;;18.70;15.63;;;;;;;8.95;100.00;103053.44;5277501;28;20025;-70
2022/03/27 04:14:36;;;;;;;17.77;15.88;;;;;;;8.92;100.00;103055.34;5276319;28;20047;-71
2022/03/27 04:17:07;;;;;;;18.45;14.70;;;;;;;9.00;100.00;103059.31;5278977;28;20021;-70
2022/03/27 04:19:40;;;;;;;18.67;15.18;;;;;;;9.01;100.00;103055.78;5276742;28;20059;-71
2022/03/27 04:22:12;;;;;;;18.83;16.05;;;;;;;8.96;100.00;103054.28;5277703;28;20020;-70
2022/03/27 04:24:44;;;;;;;18.85;16.25;;;;;;;9.00;100.00;103051.47;5277930;28;20372;-70
2022/03/27 04:27:15;;;;;;;18.55;15.95;;;;;;;8.96;100.00;103047.28;5277888;28;20047;-70
2022/03/27 04:29:47;;;;;;;19.23;16.27;;;;;;;9.00;100.00;103048.84;5275583;28;20028;-70
2022/03/27 04:32:18;;;;;;;17.73;15.75;;;;;;;9.00;100.00;103048.00;5276852;28;20274;-70
2022/03/27 04:34:50;;;;;;;17.88;14.85;;;;;;;9.01;100.00;103055.78;5277299;28;20309;-71
2022/03/27 04:37:21;;;;;;;17.33;15.05;;;;;;;8.96;100.00;103049.06;5277075;28;20036;-70
2022/03/27 04:39:54;;;;;;;18.88;15.23;;;;;;;9.00;100.00;103048.00;5277670;28;20025;-71
2022/03/27 04:42:26;;;;;;;19.63;16.42;;;;;;;8.95;100.00;103042.97;5277473;28;20036;-70
2022/03/27 04:44:58;;;;;;;19.40;15.77;;;;;;;8.95;100.00;103058.66;5275464;28;20047;-70
2022/03/27 04:47:29;;;;;;;18.52;16.08;;;;;;;8.93;100.00;103050.03;5277054;28;20021;-71
2022/03/27 04:50:02;;;;;;;18.65;15.43;;;;;;;8.87;100.00;103052.91;5277717;28;20476;-70
2022/03/27 04:52:33;;;;;;;17.55;15.52;;;;;;;8.89;100.00;103051.06;5275694;28;20115;-71
2022/03/27 04:55:05;;;;;;;17.73;15.82;;;;;;;8.86;100.00;103056.44;5276618;28;20107;-70
2022/03/27 04:57:39;;;;;;;17.27;15.43;;;;;;;8.87;100.00;103050.31;5276889;28;20104;-71
2022/03/27 05:00:14;;;;;;;21.05;16.23;;;;;;;8.82;100.00;103054.00;5275812;28;20031;-71
2022/03/27 05:02:45;;;;;;;20.48;15.93;;;;;;;8.83;100.00;103056.59;5276601;28;20111;-69
2022/03/27 05:05:17;;;;;;;23.08;16.65;;;;;;;8.81;100.00;103063.63;5276444;28;20123;-69
2022/03/27 05:07:48;;;;;;;19.67;16.02;;;;;;;8.82;100.00;103065.31;5275876;28;20107;-70
2022/03/27 05:10:20;;;;;;;18.77;16.80;;;;;;;8.88;100.00;103061.59;5277312;28;20040;-69
2022/03/27 05:12:51;;;;;;;19.55;16.98;;;;;;;8.87;100.00;103067.75;5276411;28;20017;-69
2022/03/27 05:15:22;;;;;;;16.90;15.07;;;;;;;8.90;100.00;103071.09;5276988;28;20566;-70
2022/03/27 05:17:58;;;;;;;18.50;16.60;;;;;;;8.87;100.00;103071.22;5274924;28;20025;-70
2022/03/27 05:20:30;;;;;;;21.27;18.30;;;;;;;8.83;100.00;103076.66;5275810;28;20016;-69
2022/03/27 05:23:02;;;;;;;23.73;16.50;;;;;;;8.88;100.00;103083.38;5272198;28;20056;-69
2022/03/27 05:25:45;;;;;;;20.63;18.02;;;;;;;8.87;100.00;103073.00;5276184;28;20784;-69
2022/03/27 05:28:16;;;;;;;21.13;18.77;;;;;;;8.84;100.00;103070.50;5276506;28;20033;-69
2022/03/27 05:30:48;;;;;;;21.83;19.05;;;;;;;8.87;100.00;103076.44;5275901;28;20028;-70
2022/03/27 05:33:19;;;;;;;22.20;19.48;;;;;;;8.88;100.00;103079.91;5274990;28;20122;-69
2022/03/27 05:35:50;;;;;;;23.50;19.80;;;;;;;8.87;100.00;103081.69;5272356;28;20510;-70
2022/03/27 05:38:21;;;;;;;22.35;18.95;;;;;;;8.83;100.00;103077.50;5274646;28;20025;-72
2022/03/27 05:40:53;;;;;;;21.55;18.25;;;;;;;8.87;100.00;103079.06;5274020;28;20073;-69
2022/03/27 05:43:24;;;;;;;22.58;19.60;;;;;;;8.89;100.00;103085.06;5274249;28;20026;-69
2022/03/27 05:45:56;;;;;;;21.38;18.95;;;;;;;8.90;100.00;103088.53;5275564;28;20032;-70
2022/03/27 05:48:27;;;;;;;26.55;20.60;;;;;;;8.89;100.00;103081.59;5274522;28;20129;-69
2022/03/27 05:50:58;;;;;;;22.67;19.67;;;;;;;8.82;100.00;103088.84;5274943;28;20032;-69
2022/03/27 05:53:30;;;;;;;21.42;18.98;;;;;;;8.85;100.00;103090.47;5274094;28;20097;-70
2022/03/27 05:56:02;;;;;;;21.80;18.75;;;;;;;8.91;100.00;103085.84;5276195;28;20561;-70
2022/03/27 05:58:35;;;;;;;24.75;19.98;;;;;;;8.90;100.00;103088.53;5274525;28;20024;-70
2022/03/27 06:01:06;;;;;;;22.00;19.50;;;;;;;8.84;100.00;103081.78;5275250;28;20550;-69
2022/03/27 06:03:38;;;;;;;20.75;18.35;;;;;;;8.84;100.00;103094.03;5275684;28;20056;-69
2022/03/27 06:06:09;;;;;;;21.15;18.48;;;;;;;8.77;100.00;103101.25;5275352;28;20105;-69
2022/03/27 06:08:40;;;;;;;20.48;17.70;;;;;;;8.78;100.00;103098.56;5274830;28;20397;-69
2022/03/27 06:11:11;;;;;;;18.02;16.13;;;;;;;8.75;100.00;103105.69;5274819;28;20028;-69
2022/03/27 06:13:43;;;;;;;20.48;16.52;;;;;;;8.69;100.00;103117.25;5274795;28;20068;-69
2022/03/27 06:16:14;;;;;;;18.98;16.25;;;;;;;8.66;100.00;103111.28;5272138;28;20031;-69
2022/03/27 06:18:47;;;;;;;19.80;15.70;;;;;;;8.58;100.00;103102.91;5271760;28;20604;-71
2022/03/27 06:21:18;;;;;;;17.60;15.00;;;;;;;8.60;100.00;103104.56;5272644;28;20131;-71
2022/03/27 06:23:49;;;;;;;18.02;14.73;;;;;;;8.57;100.00;103099.47;5272860;28;20115;-71
2022/03/27 06:26:21;;;;;;;20.40;14.95;;;;;;;8.54;100.00;103107.41;5272848;28;20028;-71
2022/03/27 06:28:52;;;;;;;18.33;15.55;;;;;;;8.53;100.00;103100.50;5274673;28;20086;-72
2022/03/27 06:31:23;;;;;;;20.92;16.23;;;;;;;8.57;100.00;103103.84;5271557;28;20044;-71
2022/03/27 06:33:55;;;;;;;21.35;16.60;;;;;;;8.57;100.00;103104.69;5274305;28;20029;-72
2022/03/27 06:36:26;;;;;;;23.45;16.33;;;;;;;8.56;100.00;103110.84;5273962;28;20038;-71
2022/03/27 06:38:58;;;;;;;23.75;17.40;;;;;;;8.54;100.00;103110.03;5274873;28;20389;-71
2022/03/27 06:41:29;;;;;;;24.67;18.08;;;;;;;8.59;100.00;103120.28;5274618;28;20125;-71
2022/03/27 06:44:00;;;;;;;27.55;18.17;;;;;;;8.57;100.00;103117.75;5273356;28;20387;-71
2022/03/27 06:46:32;;;;;;;23.27;17.65;;;;;;;8.58;100.00;103119.44;5273419;28;20485;-71
2022/03/27 06:49:03;;;;;;;29.88;18.85;;;;;;;8.53;100.00;103116.19;5273757;28;20654;-72
2022/03/27 06:51:34;;;;;;;23.88;18.20;;;;;;;8.65;100.00;103125.28;5274341;28;20101;-72
2022/03/27 06:54:06;;;;;;;24.58;18.98;;;;;;;8.68;100.00;103115.56;5273532;28;20078;-71
2022/03/27 06:56:40;;;;;;;29.27;18.90;;;;;;;8.68;100.00;103114.72;5274096;28;21258;-72
2022/03/27 06:59:12;;;;;;;23.90;18.60;;;;;;;8.68;100.00;103117.31;5274658;28;20021;-71
2022/03/27 07:04:33;;;;;;;28.67;19.27;;;;;;;8.65;100.00;103120.06;5273040;28;20044;-68
2022/03/27 07:07:04;;;;;;;33.95;19.63;;;;;;;8.61;100.00;103118.47;5273305;28;20029;-69
2022/03/27 07:09:35;;;;;;;33.20;20.67;;;;;;;8.61;100.00;103119.31;5274160;28;20017;-69
2022/03/27 07:12:08;;;;;;;27.58;19.80;;;;;;;8.58;100.00;103118.59;5272813;28;20032;-69
2022/03/27 07:14:39;;;;;;;27.05;19.38;;;;;;;8.69;100.00;103119.88;5271384;28;20055;-69
2022/03/27 07:17:14;;;;;;;27.45;18.90;;;;;;;8.67;100.00;103116.44;5274782;28;20474;-69
2022/03/27 07:19:45;;;;;;;27.65;18.70;;;;;;;8.70;100.00;103123.31;5270645;28;20025;-69
2022/03/27 07:22:17;;;;;;;26.17;18.98;;;;;;;8.67;100.00;103107.75;5274201;28;20039;-68
2022/03/27 07:24:48;;;;;;;32.17;20.75;;;;;;;8.74;100.00;103117.91;5278511;28;20025;-69
2022/03/27 07:27:20;;;;;;;27.85;20.98;;;;;;;8.76;100.00;103120.47;5279506;28;20040;-69
2022/03/27 07:29:51;;;;;;;28.70;19.60;;;;;;;8.70;100.00;103112.88;5278326;28;20071;-71
2022/03/27 07:32:22;;;;;;;30.13;21.35;;;;;;;8.78;100.00;103113.41;5274912;28;20510;-69
2022/03/27 07:34:54;;;;;;;33.35;23.10;;;;;;;8.79;100.00;103117.75;5277178;28;20440;-68
2022/03/27 07:37:26;;;;;;;34.75;23.25;;;;;;;8.70;100.00;103115.47;5275805;28;20489;-68
2022/03/27 07:39:57;;;;;;;32.05;21.80;;;;;;;8.70;100.00;103123.31;5277251;28;20532;-71
2022/03/27 07:42:31;;;;;;;38.08;23.80;;;;;;;8.73;100.00;103125.81;5277479;28;20020;-71
2022/03/27 07:45:04;;;;;;;32.35;22.38;;;;;;;8.71;100.00;103125.91;5277177;28;20094;-71
2022/03/27 07:47:36;;;;;;;35.08;23.58;;;;;;;8.72;100.00;103117.13;5277996;28;20016;-71
2022/03/27 07:50:08;;;;;;;32.55;23.33;;;;;;;8.77;100.00;103114.31;5275043;28;20094;-71
2022/03/27 07:52:39;;;;;;;33.28;23.30;;;;;;;8.78;100.00;103118.63;5277729;28;20038;-72
2022/03/27 07:55:13;;;;;;;28.20;20.95;;;;;;;8.76;100.00;103118.72;5278384;28;20032;-71
2022/03/27 07:57:45;;;;;;;33.35;22.05;;;;;;;8.82;100.00;103116.75;5278309;28;20573;-71
2022/03/27 08:00:17;;;;;;;29.95;21.35;;;;;;;8.88;100.00;103122.56;5277799;28;20020;-71
2022/03/27 08:02:48;;;;;;;30.23;20.75;;;;;;;8.81;100.00;103115.91;5277793;28;20493;-71
2022/03/27 08:05:21;;;;;;;32.75;21.05;;;;;;;8.81;100.00;103122.88;5276248;28;20690;-70
2022/03/27 08:07:52;;;;;;;29.23;20.98;;;;;;;8.87;100.00;103114.81;5277714;28;20444;-70
2022/03/27 08:10:24;;;;;;;27.80;20.08;;;;;;;8.84;100.00;103120.16;5278555;28;20032;-70
2022/03/27 08:12:55;;;;;;;34.53;20.70;;;;;;;8.78;100.00;103114.25;5276887;28;20126;-70
2022/03/27 08:15:28;;;;;;;31.43;21.00;;;;;;;8.83;100.00;103118.47;5277686;28;20053;-70
2022/03/27 08:17:59;;;;;;;30.40;22.00;;;;;;;8.83;100.00;103116.69;5275297;28;20035;-69
2022/03/27 08:20:31;;;;;;;30.70;20.92;;;;;;;8.82;100.00;103119.34;5276894;28;20033;-69
2022/03/27 08:23:03;;;;;;;29.20;20.10;;;;;;;8.85;100.00;103116.63;5277630;28;20533;-69
2022/03/27 08:28:25;;;;;;;31.42;21.75;;;;;;;8.91;100.00;103117.22;5273766;28;20044;-69
2022/03/27 08:30:56;;;;;;;28.90;20.92;;;;;;;8.97;100.00;103123.94;5274213;28;20037;-69
2022/03/27 08:33:27;;;;;;;28.98;21.02;;;;;;;8.96;100.00;103130.09;5276731;28;20154;-69
2022/03/27 08:35:59;;;;;;;30.40;22.38;;;;;;;8.98;100.00;103123.91;5274446;28;20077;-70
2022/03/27 08:38:31;;;;;;;32.30;21.73;;;;;;;8.96;100.00;103115.25;5273404;28;20060;-71
2022/03/27 08:41:02;;;;;;;30.70;21.35;;;;;;;9.05;100.00;103118.41;5277333;28;20039;-70
2022/03/27 08:43:33;;;;;;;28.70;21.52;;;;;;;9.09;100.00;103122.59;5276876;28;20024;-71
2022/03/27 08:46:05;;;;;;;30.10;21.42;;;;;;;9.11;100.00;103118.16;5277313;28;20025;-70
2022/03/27 08:48:37;;;;;;;30.55;21.27;;;;;;;9.08;100.00;103128.75;5275618;28;20044;-70
2022/03/27 08:51:32;;;;;;;32.45;23.08;;;;;;;9.30;100.00;103119.06;5277345;28;20115;-70
2022/03/27 08:54:06;;;;;;;29.20;22.05;;;;;;;9.18;100.00;103119.59;5276098;28;20032;-70
2022/03/27 08:56:37;;;;;;;27.55;21.45;;;;;;;9.20;100.00;103123.81;5277219;28;20484;-70
2022/03/27 08:59:10;;;;;;;26.48;20.52;;;;;;;9.24;100.00;103121.94;5272565;28;20027;-71
2022/03/27 09:01:43;;;;;;;30.42;21.30;;;;;;;9.20;100.00;103126.44;5276818;28;20024;-71
2022/03/27 09:04:15;;;;;;;;;;;;;;;9.68;100.00;103129.63;5277701;28;20111;-71
2022/03/27 09:06:46;;;;;;;26.88;19.95;;;;;;;9.24;100.00;103135.00;5277036;28;20453;-71
2022/03/27 09:09:17;;;;;;;27.33;20.38;;;;;;;9.34;100.00;103131.09;5275781;28;20390;-71
2022/03/27 09:11:49;;;;;;;27.20;20.25;;;;;;;9.24;100.00;103135.00;5274784;28;20037;-71
2022/03/27 09:14:21;;;;;;;26.80;20.25;;;;;;;9.32;100.00;103142.53;5275886;28;20430;-70
2022/03/27 09:17:08;;;;;;;24.98;19.90;;;;;;;9.44;100.00;103144.66;5277782;28;20036;-69
2022/03/27 09:19:43;;;;;;;24.23;18.60;;;;;;;9.22;100.00;103140.31;5276577;28;20031;-70
2022/03/27 09:22:23;;;;;;;22.63;18.27;;;;;;;9.35;100.00;103148.47;5275171;28;20162;-70
2022/03/27 09:25:05;;;;;;;20.55;15.43;;;;;;;9.44;100.00;103148.09;5276523;28;20032;-70
2022/03/27 09:27:37;;;;;;;20.15;14.93;;;;;;;9.30;100.00;103149.59;5274412;28;20024;-69
2022/03/27 09:30:10;;;;;;;18.55;15.00;;;;;;;9.31;100.00;103154.75;5274350;28;20029;-70
2022/03/27 09:32:45;;;;;;;19.73;15.68;;;;;;;9.17;100.00;103144.06;5275857;28;20170;-70
2022/03/27 09:35:17;;;;;;;19.15;14.90;;;;;;;9.20;100.00;103149.13;5275938;28;20533;-69
2022/03/27 09:37:49;;;;;;;18.60;15.00;;;;;;;9.22;100.00;103145.56;5275957;28;20063;-70
2022/03/27 09:40:20;;;;;;;19.10;15.25;;;;;;;9.27;100.00;103142.72;5274276;28;20545;-70
2022/03/27 09:43:10;;;;;;;16.85;14.20;;;;;;;9.55;100.00;103136.34;5273894;28;20016;-70
2022/03/27 09:45:55;;;;;;;17.67;13.98;;;;;;;9.55;100.00;103136.34;5275421;28;20031;-69
2022/03/27 09:48:27;;;;;;;16.58;13.13;;;;;;;9.52;100.00;103128.63;5276250;28;20032;-70
2022/03/27 09:51:00;;;;;;;17.00;14.18;;;;;;;9.54;100.00;103132.84;5275944;28;20107;-70
2022/03/27 09:53:32;;;;;;;19.10;14.83;;;;;;;9.67;100.00;103135.78;5275418;28;20032;-70
2022/03/27 09:56:03;;;;;;;20.50;16.33;;;;;;;9.66;100.00;103123.59;5275598;28;20319;-69
2022/03/27 09:58:40;;;;;;;17.37;14.10;;;;;;;9.71;100.00;103121.66;5276336;28;20382;-70
2022/03/27 10:01:16;;;;;;;18.95;15.18;;;;;;;9.74;100.00;103121.50;5275562;28;20323;-70
2022/03/27 10:04:01;;;;;;;20.35;16.33;;;;;;;9.90;100.00;103117.28;5275869;28;20020;-70
2022/03/27 10:06:38;;;;;;;21.38;16.67;;;;;;;9.81;100.00;103108.97;5276361;28;20090;-68
2022/03/27 10:09:11;;;;;;;20.55;16.30;;;;;;;9.85;100.00;103100.94;5276206;28;20501;-69
2022/03/27 10:11:43;;;;;;;19.85;16.67;;;;;;;10.02;100.00;103101.91;5274046;28;20028;-69
2022/03/27 10:14:15;;;;;;;23.23;16.75;;;;;;;10.06;100.00;103099.06;5274695;28;20044;-69
2022/03/27 10:16:47;;;;;;;20.63;16.35;;;;;;;10.08;100.00;103099.03;5275880;28;20497;-69
2022/03/27 10:19:33;;;;;;;20.75;16.52;;;;;;;10.25;100.00;103096.47;5274020;28;20024;-70
2022/03/27 10:22:07;;;;;;;21.20;16.52;;;;;;;10.24;100.00;103094.75;5274941;28;20050;-70
2022/03/27 10:24:44;;;;;;;22.65;17.20;;;;;;;10.32;100.00;103086.56;5270817;28;20032;-68
2022/03/27 10:27:18;;;;;;;21.80;16.48;;;;;;;10.36;100.00;103086.34;5274774;28;20111;-70
2022/03/27 10:29:50;;;;;;;21.00;17.15;;;;;;;10.32;100.00;103084.78;5274994;28;20054;-71
2022/03/27 10:32:22;;;;;;;19.48;15.88;;;;;;;10.52;100.00;103086.44;5275327;28;20028;-70
2022/03/27 10:35:37;;;;;;;20.73;16.35;;;;;;;11.00;100.00;103089.34;5274068;28;20111;-70
2022/03/27 10:38:51;;;;;;;20.38;15.57;;;;;;;11.00;100.00;103082.31;5266321;28;20068;-70
2022/03/27 10:42:02;;;;;;;21.08;15.77;;;;;;;11.05;100.00;103084.69;5251824;28;20389;-70
2022/03/27 10:44:41;;;;;;;18.52;15.85;;;;;;;11.18;100.00;103080.53;5274015;28;20588;-70
2022/03/27 10:47:23;;;;;;;21.55;16.48;;;;;;;11.38;100.00;103071.59;5274528;28;20359;-70
2022/03/27 10:50:01;;;;;;;18.08;16.13;;;;;;;11.54;100.00;103071.63;5275667;28;20502;-71
2022/03/27 10:52:36;;;;;;;18.48;15.40;;;;;;;11.77;100.00;103071.25;5275167;28;20036;-70
2022/03/27 10:55:11;;;;;;;21.52;16.65;;;;;;;11.75;100.00;103062.63;5273607;28;20051;-70
2022/03/27 10:57:46;;;;;;;18.65;15.00;;;;;;;12.01;100.00;103070.84;5274597;28;20032;-70
2022/03/27 11:00:50;;;;;;;19.23;15.38;;;;;;;12.29;100.00;103059.66;5275169;28;20036;-70
2022/03/27 11:03:44;;;;;;;18.58;15.05;;;;;;;12.50;100.00;103068.09;5218288;28;20128;-69
2022/03/27 11:06:23;;;;;;;17.35;15.00;;;;;;;12.66;100.00;103058.41;5274249;28;20516;-69
2022/03/27 11:08:57;;;;;;;17.83;15.75;;;;;;;12.55;100.00;103058.19;5275281;28;20366;-69
2022/03/27 11:11:37;;;;;;;17.80;15.75;;;;;;;12.81;100.00;103059.28;5273143;28;20027;-69
2022/03/27 11:14:09;;;;;;;19.05;15.70;;;;;;;12.95;100.00;103055.81;5273001;28;20498;-69
2022/03/27 11:17:10;;;;;;;17.60;15.73;;;;;;;13.35;100.00;103049.03;5274482;28;20035;-69
2022/03/27 11:19:46;;;;;;;18.48;16.02;;;;;;;13.13;100.00;103046.81;5273292;28;20020;-68
2022/03/27 11:22:51;;;;;;;18.33;16.20;;;;;;;13.37;100.00;103041.88;5269671;28;20062;-69
2022/03/27 11:25:29;;;;;;;18.85;16.40;;;;;;;13.41;100.00;103039.91;5275123;28;20017;-69
2022/03/27 11:28:07;;;;;;;18.35;16.10;;;;;;;13.68;100.00;103032.09;5274636;28;20497;-69
2022/03/27 11:30:47;;;;;;;18.98;15.32;;;;;;;13.74;100.00;103034.31;5274618;28;20056;-69
2022/03/27 11:33:30;;;;;;;19.80;16.73;;;;;;;13.82;100.00;103029.41;5273580;28;20490;-69
2022/03/27 11:36:04;;;;;;;17.92;16.00;;;;;;;13.93;100.00;103031.34;5275141;28;20367;-68
2022/03/27 11:38:51;;;;;;;19.45;16.23;;;;;;;14.15;100.00;103026.38;5275372;28;20025;-69
2022/03/27 11:41:24;;;;;;;17.95;16.05;;;;;;;14.12;100.00;103023.94;5273775;28;20088;-69
2022/03/27 11:43:56;;;;;;;;;;;;;;;14.69;100.00;103005.22;5275422;28;20482;-69
2022/03/27 11:46:29;;;;;;;17.83;14.82;;;;;;;14.56;100.00;103021.03;5274991;28;19908;-68
2022/03/27 11:49:01;;;;;;;17.60;15.80;;;;;;;14.77;100.00;103018.75;5274045;28;20024;-69